Terminal Aerodrome Forecast
Issued by NWS Goodland, KS

Home | Current Version | Previous Version | Text Only | Print | Product List | Glossary On
Versions: 1 2 3 4 5 6 7 8 9 10 11 12
000
FTUS43 KGLD 082321
TAFGLD
TAF
KGLD 082321Z 0900/0924 34011KT P6SM SCT060 BKN200
     FM090600 30010KT P6SM SCT200 WS020/34035KT
     FM091500 33014G20KT P6SM SCT250=

USA.gov is the U.S. government's official web portal to all federal, state and local government web resources and services.